createdAt,value
2023-04-15T00:00:25.825Z,70.58
2023-04-15T00:05:51.140Z,70.64
2023-04-15T00:11:13.066Z,70.37
2023-04-15T00:16:34.863Z,70.63
2023-04-15T00:21:57.425Z,70.57
2023-04-15T00:27:19.859Z,70.60
2023-04-15T00:32:42.552Z,70.47
2023-04-15T00:38:04.999Z,70.67
2023-04-15T00:43:27.951Z,70.59
2023-04-15T00:48:50.689Z,70.72
2023-04-15T00:54:13.227Z,70.75
2023-04-15T00:59:36.353Z,70.05
2023-04-15T01:04:58.278Z,69.90
2023-04-15T01:10:20.231Z,70.06
2023-04-15T01:15:42.866Z,70.30
2023-04-15T01:21:06.012Z,70.37
2023-04-15T01:26:28.405Z,70.40
2023-04-15T01:31:55.172Z,70.62
2023-04-15T01:37:17.280Z,70.68
2023-04-15T01:42:39.007Z,70.84
2023-04-15T01:48:01.081Z,71.05
2023-04-15T01:53:22.580Z,71.33
2023-04-15T01:58:47.272Z,71.26
2023-04-15T02:04:16.595Z,71.44
2023-04-15T02:09:38.917Z,70.87
2023-04-15T02:15:02.933Z,69.32
2023-04-15T02:20:24.554Z,68.41
2023-04-15T02:25:53.598Z,67.81
2023-04-15T02:31:16.069Z,67.80
2023-04-15T02:36:37.878Z,67.03
2023-04-15T02:42:01.695Z,66.30
2023-04-15T02:47:24.393Z,66.13
2023-04-15T02:52:49.289Z,65.99
2023-04-15T02:58:11.117Z,65.94
2023-04-15T03:03:33.061Z,65.61
2023-04-15T03:08:55.171Z,65.76
2023-04-15T03:14:17.901Z,65.61
2023-04-15T03:19:41.737Z,66.03
2023-04-15T03:25:04.868Z,66.00
2023-04-15T03:30:27.772Z,65.84
2023-04-15T03:35:51.841Z,65.61
2023-04-15T03:41:13.568Z,65.80
2023-04-15T03:46:35.506Z,66.16
2023-04-15T03:51:57.936Z,66.55
2023-04-15T03:57:19.762Z,66.77
2023-04-15T04:02:44.105Z,67.06
2023-04-15T04:08:06.634Z,67.27
2023-04-15T04:13:28.457Z,67.68
2023-04-15T04:18:53.297Z,67.84
2023-04-15T04:24:15.127Z,67.85
2023-04-15T04:29:37.145Z,67.78
2023-04-15T04:34:58.985Z,68.04
2023-04-15T04:40:23.936Z,68.25
2023-04-15T04:45:45.868Z,68.38
2023-04-15T04:51:09.215Z,68.45
2023-04-15T04:56:33.521Z,68.24
2023-04-15T05:01:55.680Z,68.10
2023-04-15T05:07:17.782Z,68.16
2023-04-15T05:12:39.724Z,67.88
2023-04-15T05:18:01.714Z,67.85
2023-04-15T05:23:23.775Z,67.92
2023-04-15T05:28:45.603Z,67.47
2023-04-15T05:34:08.448Z,67.40
2023-04-15T05:39:31.172Z,66.99
2023-04-15T05:44:53.101Z,66.66
2023-04-15T05:50:15.026Z,66.90
2023-04-15T05:55:37.158Z,66.60
2023-04-15T06:00:59.087Z,66.63
2023-04-15T06:06:21.117Z,66.93
2023-04-15T06:11:42.947Z,67.21
2023-04-15T06:17:04.778Z,66.80
2023-04-15T06:22:26.607Z,66.76
2023-04-15T06:27:48.633Z,66.84
2023-04-15T06:33:10.973Z,66.18
2023-04-15T06:38:32.994Z,65.48
2023-04-15T06:43:55.725Z,64.94
2023-04-15T06:49:19.062Z,63.63
2023-04-15T06:54:41.094Z,62.80
2023-04-15T07:00:05.935Z,62.19
2023-04-15T07:05:28.051Z,62.05
2023-04-15T07:10:49.685Z,60.28
2023-04-15T07:16:11.688Z,59.77
2023-04-15T07:21:33.717Z,57.66
2023-04-15T07:27:00.838Z,58.34
2023-04-15T07:32:23.027Z,58.49
2023-04-15T07:37:44.708Z,58.05
2023-04-15T07:43:06.986Z,57.80
2023-04-15T07:48:28.415Z,56.51
2023-04-15T07:53:50.850Z,55.85
2023-04-15T07:59:13.270Z,55.53
2023-04-15T08:04:35.424Z,54.71
2023-04-15T08:09:57.543Z,54.21
2023-04-15T08:15:22.426Z,53.29
2023-04-15T08:20:44.402Z,52.83
2023-04-15T08:26:06.535Z,52.42
2023-04-15T08:31:29.975Z,51.88
2023-04-15T08:36:51.701Z,51.32
2023-04-15T08:42:17.741Z,51.00
2023-04-15T08:47:40.961Z,50.13
2023-04-15T08:53:03.003Z,50.06
2023-04-15T08:58:25.439Z,49.45
2023-04-15T09:03:49.398Z,48.46
2023-04-15T09:09:13.408Z,47.90
2023-04-15T09:14:35.236Z,48.04
2023-04-15T09:20:10.964Z,48.00
2023-04-15T09:25:34.934Z,48.88
2023-04-15T09:31:01.361Z,46.98
2023-04-15T09:36:23.420Z,46.17
2023-04-15T09:41:45.454Z,45.83
2023-04-15T09:47:07.586Z,45.15
2023-04-15T09:52:30.315Z,44.25
2023-04-15T09:57:52.453Z,44.05
2023-04-15T10:03:16.572Z,44.10
2023-04-15T10:08:38.811Z,43.26
2023-04-15T10:14:01.165Z,43.42
2023-04-15T10:19:26.888Z,43.76
2023-04-15T10:24:49.324Z,43.32
2023-04-15T10:30:11.951Z,43.05
2023-04-15T10:35:34.696Z,42.54
2023-04-15T10:41:17.757Z,42.31
2023-04-15T10:46:44.741Z,42.42
2023-04-15T10:52:08.480Z,41.50
2023-04-15T10:57:39.531Z,41.35
2023-04-15T11:03:08.882Z,40.55
2023-04-15T11:08:54.647Z,41.27
2023-04-15T11:14:16.524Z,41.48
2023-04-15T11:19:39.557Z,41.30
2023-04-15T11:25:02.855Z,41.78
2023-04-15T11:30:27.097Z,41.69
2023-04-15T11:35:49.258Z,41.39
2023-04-15T11:41:11.588Z,41.42
2023-04-15T11:46:33.322Z,42.07
2023-04-15T11:51:55.351Z,41.24
2023-04-15T11:57:17.382Z,40.74
2023-04-15T12:02:39.870Z,41.84
2023-04-15T12:08:02.041Z,42.84
2023-04-15T12:13:24.169Z,43.37
2023-04-15T12:18:47.362Z,42.71
2023-04-15T12:24:10.336Z,42.60
2023-04-15T12:29:32.894Z,43.24
2023-04-15T12:34:54.799Z,43.35
2023-04-15T12:40:16.731Z,43.78
2023-04-15T12:45:38.713Z,43.84
2023-04-15T12:51:04.469Z,43.49
2023-04-15T12:56:27.839Z,43.11
2023-04-15T13:01:50.460Z,43.05
2023-04-15T13:07:14.210Z,43.09
2023-04-15T13:12:36.921Z,43.27
2023-04-15T13:17:58.895Z,43.01
2023-04-15T13:23:20.998Z,42.53
2023-04-15T13:28:42.873Z,42.55
2023-04-15T13:34:04.784Z,41.78
2023-04-15T13:39:27.486Z,41.93
2023-04-15T13:44:51.506Z,42.14
2023-04-15T13:50:13.453Z,42.67
2023-04-15T13:55:36.485Z,43.19
2023-04-15T14:00:58.101Z,43.48
2023-04-15T14:06:20.718Z,43.43
2023-04-15T14:11:43.111Z,43.38
2023-04-15T14:17:07.450Z,44.06
2023-04-15T14:22:29.287Z,44.02
2023-04-15T14:27:51.119Z,44.04
2023-04-15T14:33:13.335Z,43.98
2023-04-15T14:38:38.800Z,44.35
2023-04-15T14:44:01.411Z,45.25
2023-04-15T14:49:24.483Z,46.19
2023-04-15T14:54:46.407Z,46.37
2023-04-15T15:00:10.595Z,46.88
2023-04-15T15:05:32.542Z,48.13
2023-04-15T15:10:54.771Z,48.27
2023-04-15T15:16:16.651Z,48.28
2023-04-15T15:21:38.790Z,49.38
2023-04-15T15:27:00.659Z,50.25
2023-04-15T15:32:23.609Z,50.69
2023-04-15T15:37:46.340Z,51.12
2023-04-15T15:43:08.375Z,51.70
2023-04-15T15:48:30.585Z,52.46
2023-04-15T15:53:52.417Z,52.61
2023-04-15T15:59:14.047Z,52.34
2023-04-15T16:04:36.101Z,52.77
2023-04-15T16:09:57.844Z,52.66
2023-04-15T16:15:19.729Z,52.33
2023-04-15T16:20:41.959Z,52.08
2023-04-15T16:26:04.690Z,51.50
2023-04-15T16:31:26.648Z,51.43
2023-04-15T16:36:48.817Z,51.75
2023-04-15T16:42:10.800Z,52.83
2023-04-15T16:47:33.991Z,53.49
2023-04-15T16:52:56.257Z,53.89
2023-04-15T16:58:17.870Z,54.15
2023-04-15T17:03:40.390Z,54.53
2023-04-15T17:09:02.806Z,55.34
2023-04-15T17:14:24.829Z,55.92
2023-04-15T17:19:48.912Z,57.04
2023-04-15T17:25:11.129Z,57.46
2023-04-15T17:30:33.560Z,58.37
2023-04-15T17:35:55.689Z,59.56
2023-04-15T17:41:17.692Z,60.35
2023-04-15T17:46:39.615Z,61.27
2023-04-15T17:52:01.885Z,61.62
2023-04-15T17:57:25.318Z,62.28
2023-04-15T18:02:48.900Z,62.40
2023-04-15T18:08:11.288Z,63.34
2023-04-15T18:13:33.110Z,63.70
2023-04-15T18:18:54.739Z,64.00
2023-04-15T18:24:16.867Z,64.99
2023-04-15T18:29:43.162Z,65.76
2023-04-15T18:35:06.255Z,66.06
2023-04-15T18:40:28.982Z,67.04
2023-04-15T18:45:54.758Z,67.90
2023-04-15T18:51:16.959Z,69.09
2023-04-15T18:56:39.909Z,69.06
2023-04-15T19:02:06.606Z,69.08
2023-04-15T19:07:30.578Z,69.46
2023-04-15T19:12:54.126Z,69.45
2023-04-15T19:18:16.841Z,69.50
2023-04-15T19:23:39.276Z,69.75
2023-04-15T19:29:01.355Z,69.96
2023-04-15T19:34:25.072Z,69.67
2023-04-15T19:39:47.171Z,70.27
2023-04-15T19:45:09.821Z,70.87
2023-04-15T19:50:32.638Z,71.07
2023-04-15T19:55:54.488Z,70.61
2023-04-15T20:01:16.519Z,70.77
2023-04-15T20:06:38.530Z,70.49
2023-04-15T20:12:48.155Z,70.87
2023-04-15T20:17:44.369Z,70.97
2023-04-15T20:23:06.244Z,70.73
2023-04-15T20:28:28.443Z,71.13
2023-04-15T20:33:50.238Z,70.83
2023-04-15T20:39:12.074Z,70.37
2023-04-15T20:44:34.704Z,70.62
2023-04-15T20:49:56.648Z,70.88
2023-04-15T20:55:18.876Z,71.38
2023-04-15T21:00:40.481Z,71.95
2023-04-15T21:06:02.432Z,72.26
2023-04-15T21:11:42.978Z,72.45
2023-04-15T21:17:10.595Z,72.67
2023-04-15T21:22:33.002Z,72.80
2023-04-15T21:27:54.928Z,72.70
2023-04-15T21:33:20.369Z,72.58
2023-04-15T21:38:42.414Z,72.38
2023-04-15T21:44:04.461Z,72.45
2023-04-15T21:49:26.254Z,72.48
2023-04-15T21:54:48.091Z,72.65
2023-04-15T22:00:11.016Z,72.99
2023-04-15T22:05:32.550Z,73.21
2023-04-15T22:10:54.972Z,73.28
2023-04-15T22:16:16.975Z,73.36
2023-04-15T22:21:39.248Z,73.27
2023-04-15T22:27:02.369Z,73.49
2023-04-15T22:32:24.522Z,73.89
2023-04-15T22:37:46.337Z,74.24
2023-04-15T22:43:08.459Z,74.26
2023-04-15T22:48:30.583Z,74.42
2023-04-15T22:53:52.396Z,74.49
2023-04-15T22:59:14.572Z,74.78
2023-04-15T23:04:36.592Z,74.80
2023-04-15T23:10:00.526Z,74.70
2023-04-15T23:15:22.643Z,74.80
2023-04-15T23:20:46.179Z,75.05
2023-04-15T23:26:09.410Z,75.22
2023-04-15T23:31:32.187Z,75.61
2023-04-15T23:36:54.179Z,75.50
2023-04-15T23:42:16.088Z,75.59
2023-04-15T23:47:40.253Z,75.28
2023-04-15T23:53:02.220Z,75.18
2023-04-15T23:58:24.354Z,75.32
